createdAt,value
2023-02-16T00:00:15.709Z,7.83
2023-02-16T00:02:42.338Z,7.74
2023-02-16T00:05:38.349Z,7.71
2023-02-16T00:08:05.088Z,7.72
2023-02-16T00:10:34.485Z,7.70
2023-02-16T00:13:20.536Z,7.74
2023-02-16T00:15:47.689Z,7.64
2023-02-16T00:18:21.964Z,7.72
2023-02-16T00:20:49.339Z,7.69
2023-02-16T00:23:16.354Z,7.68
2023-02-16T00:25:43.197Z,7.66
2023-02-16T00:28:19.063Z,7.77
2023-02-16T00:30:46.379Z,7.73
2023-02-16T00:33:15.899Z,7.75
2023-02-16T00:35:42.949Z,7.67
2023-02-16T00:38:09.543Z,7.59
2023-02-16T00:40:36.325Z,7.49
2023-02-16T00:43:03.244Z,7.54
2023-02-16T00:45:33.824Z,7.61
2023-02-16T00:48:00.460Z,7.56
2023-02-16T00:50:32.929Z,7.67
2023-02-16T00:53:00.238Z,7.54
2023-02-16T00:55:30.362Z,7.48
2023-02-16T00:58:05.317Z,7.44
2023-02-16T01:00:36.344Z,7.40
2023-02-16T01:03:07.799Z,7.26
2023-02-16T01:05:34.559Z,7.33
2023-02-16T01:08:21.063Z,7.25
2023-02-16T01:11:07.382Z,7.28
2023-02-16T01:13:43.609Z,7.18
2023-02-16T01:16:13.962Z,7.14
2023-02-16T01:18:40.755Z,7.06
2023-02-16T01:21:07.371Z,7.01
2023-02-16T01:23:33.953Z,7.02
2023-02-16T01:26:00.565Z,7.01
2023-02-16T01:28:27.330Z,6.95
2023-02-16T01:30:54.153Z,6.88
2023-02-16T01:33:21.177Z,6.82
2023-02-16T01:35:55.456Z,6.82
2023-02-16T01:38:25.124Z,6.99
2023-02-16T01:40:59.942Z,6.86
2023-02-16T01:43:34.882Z,6.82
2023-02-16T01:46:12.410Z,6.83
2023-02-16T01:48:39.123Z,6.78
2023-02-16T01:51:16.656Z,6.74
2023-02-16T01:53:53.476Z,6.74
2023-02-16T01:56:41.805Z,6.69
2023-02-16T01:59:37.653Z,6.65
2023-02-16T02:02:05.318Z,6.62
2023-02-16T02:04:58.899Z,6.62
2023-02-16T02:07:41.244Z,6.50
2023-02-16T02:10:15.745Z,6.53
2023-02-16T02:12:53.223Z,6.61
2023-02-16T02:15:24.631Z,6.64
2023-02-16T02:17:51.202Z,6.51
2023-02-16T02:20:58.158Z,6.57
2023-02-16T02:23:43.045Z,6.50
2023-02-16T02:26:28.821Z,6.62
2023-02-16T02:28:55.275Z,6.62
2023-02-16T02:31:50.390Z,6.60
2023-02-16T02:34:39.691Z,6.67
2023-02-16T02:37:29.632Z,6.76
2023-02-16T02:40:13.533Z,6.63
2023-02-16T02:43:03.123Z,6.60
2023-02-16T02:45:36.643Z,6.51
2023-02-16T02:48:03.389Z,6.40
2023-02-16T02:50:38.588Z,6.43
2023-02-16T02:53:12.715Z,6.39
2023-02-16T02:56:02.251Z,6.31
2023-02-16T02:59:11.744Z,6.32
2023-02-16T03:01:44.295Z,6.19
2023-02-16T03:04:15.195Z,6.26
2023-02-16T03:06:47.963Z,6.24
2023-02-16T03:09:16.347Z,6.18
2023-02-16T03:12:03.866Z,6.19
2023-02-16T03:14:37.951Z,6.15
2023-02-16T03:17:29.154Z,6.14
2023-02-16T03:20:15.132Z,6.22
2023-02-16T03:23:01.521Z,6.16
2023-02-16T03:25:51.570Z,6.20
2023-02-16T03:28:40.253Z,6.35
2023-02-16T03:31:10.223Z,6.38
2023-02-16T03:33:36.952Z,6.31
2023-02-16T03:36:04.904Z,6.36
2023-02-16T03:38:32.105Z,6.38
2023-02-16T03:41:00.015Z,6.44
2023-02-16T03:43:28.388Z,6.30
2023-02-16T03:45:55.221Z,6.29
2023-02-16T03:48:22.052Z,6.24
2023-02-16T03:50:48.606Z,6.17
2023-02-16T03:53:17.469Z,6.17
2023-02-16T03:55:47.118Z,6.16
2023-02-16T03:58:17.069Z,6.20
2023-02-16T04:00:44.592Z,6.23
2023-02-16T04:03:11.215Z,6.29
2023-02-16T04:05:38.541Z,6.26
2023-02-16T04:08:06.727Z,6.27
2023-02-16T04:10:33.363Z,6.29
2023-02-16T04:13:00.178Z,6.29
2023-02-16T04:15:28.816Z,6.26
2023-02-16T04:17:55.709Z,6.27
2023-02-16T04:20:28.774Z,6.23
2023-02-16T04:22:55.565Z,6.26
2023-02-16T04:25:22.424Z,6.31
2023-02-16T04:27:49.421Z,6.26
2023-02-16T04:30:19.551Z,6.38
2023-02-16T04:32:46.422Z,6.34
2023-02-16T04:35:13.426Z,6.41
2023-02-16T04:37:40.029Z,6.29
2023-02-16T04:40:08.721Z,6.29
2023-02-16T04:42:35.439Z,6.23
2023-02-16T04:45:01.941Z,6.24
2023-02-16T04:47:28.734Z,6.25
2023-02-16T04:49:55.315Z,6.29
2023-02-16T04:52:22.042Z,6.25
2023-02-16T04:54:48.716Z,6.26
2023-02-16T04:57:15.976Z,6.24
2023-02-16T04:59:42.835Z,6.26
2023-02-16T05:02:09.477Z,6.25
2023-02-16T05:04:36.141Z,6.20
2023-02-16T05:07:02.699Z,6.07
2023-02-16T05:09:29.261Z,6.17
2023-02-16T05:12:14.422Z,6.21
2023-02-16T05:14:47.190Z,6.34
2023-02-16T05:17:22.647Z,6.24
2023-02-16T05:19:57.266Z,6.24
2023-02-16T05:22:24.289Z,6.33
2023-02-16T05:24:51.659Z,6.25
2023-02-16T05:27:27.706Z,6.12
2023-02-16T05:29:54.889Z,6.20
2023-02-16T05:32:21.891Z,6.29
2023-02-16T05:34:49.003Z,6.25
2023-02-16T05:37:17.195Z,6.15
2023-02-16T05:39:44.209Z,6.06
2023-02-16T05:42:11.155Z,6.17
2023-02-16T05:44:38.025Z,6.13
2023-02-16T05:47:04.971Z,6.09
2023-02-16T05:49:31.603Z,6.18
2023-02-16T05:51:58.150Z,6.18
2023-02-16T05:54:24.806Z,6.19
2023-02-16T05:56:52.789Z,6.16
2023-02-16T05:59:19.481Z,6.19
2023-02-16T06:01:50.539Z,6.23
2023-02-16T06:04:18.249Z,6.22
2023-02-16T06:06:44.922Z,6.31
2023-02-16T06:09:11.707Z,6.16
2023-02-16T06:11:38.642Z,6.25
2023-02-16T06:14:09.774Z,6.21
2023-02-16T06:16:38.401Z,6.23
2023-02-16T06:19:05.673Z,6.21
2023-02-16T06:21:32.833Z,6.24
2023-02-16T06:23:59.884Z,6.08
2023-02-16T06:26:26.866Z,6.09
2023-02-16T06:28:54.401Z,6.04
2023-02-16T06:31:21.586Z,6.09
2023-02-16T06:33:48.182Z,6.15
2023-02-16T06:36:15.409Z,5.98
2023-02-16T06:38:42.186Z,5.97
2023-02-16T06:41:09.497Z,6.00
2023-02-16T06:43:36.177Z,6.08
2023-02-16T06:46:02.778Z,6.03
2023-02-16T06:48:29.625Z,6.06
2023-02-16T06:50:56.469Z,5.86
2023-02-16T06:53:23.227Z,5.87
2023-02-16T06:55:51.036Z,5.91
2023-02-16T06:58:17.601Z,5.83
2023-02-16T07:00:44.215Z,5.88
2023-02-16T07:03:10.862Z,5.88
2023-02-16T07:05:37.921Z,6.04
2023-02-16T07:08:04.812Z,6.01
2023-02-16T07:10:43.844Z,5.92
2023-02-16T07:13:15.534Z,5.82
2023-02-16T07:15:42.070Z,5.78
2023-02-16T07:18:08.608Z,5.85
2023-02-16T07:20:35.136Z,5.87
2023-02-16T07:23:01.856Z,5.87
2023-02-16T07:25:28.699Z,5.91
2023-02-16T07:27:55.399Z,5.88
2023-02-16T07:30:22.506Z,6.06
2023-02-16T07:32:49.385Z,5.93
2023-02-16T07:35:15.954Z,6.03
2023-02-16T07:37:42.548Z,5.98
2023-02-16T07:40:09.604Z,5.95
2023-02-16T07:42:36.239Z,5.91
2023-02-16T07:45:02.904Z,5.94
2023-02-16T07:47:29.437Z,5.98
2023-02-16T07:49:56.408Z,6.05
2023-02-16T07:52:22.960Z,6.13
2023-02-16T07:54:49.535Z,5.96
2023-02-16T07:57:16.060Z,5.78
2023-02-16T07:59:42.793Z,5.73
2023-02-16T08:02:16.328Z,5.88
2023-02-16T08:04:43.738Z,5.93
2023-02-16T08:07:14.017Z,6.04
2023-02-16T08:09:40.973Z,6.17
2023-02-16T08:12:12.044Z,6.27
2023-02-16T08:14:39.035Z,6.25
2023-02-16T08:17:07.075Z,6.34
2023-02-16T08:19:34.515Z,6.19
2023-02-16T08:22:02.472Z,6.28
2023-02-16T08:24:29.605Z,6.38
2023-02-16T08:26:56.740Z,6.38
2023-02-16T08:29:23.777Z,6.33
2023-02-16T08:31:51.127Z,6.07
2023-02-16T08:34:19.845Z,6.17
2023-02-16T08:36:51.383Z,6.13
2023-02-16T08:39:20.993Z,6.32
2023-02-16T08:41:49.134Z,6.34
2023-02-16T08:44:17.444Z,6.33
2023-02-16T08:46:47.601Z,6.39
2023-02-16T08:49:17.439Z,6.09
2023-02-16T08:51:47.338Z,6.05
2023-02-16T08:54:20.605Z,5.78
2023-02-16T08:56:48.052Z,5.71
2023-02-16T08:59:16.408Z,5.92
2023-02-16T09:01:43.142Z,5.68
2023-02-16T09:04:09.943Z,5.77
2023-02-16T09:06:38.512Z,6.08
2023-02-16T09:09:05.962Z,6.16
2023-02-16T09:11:32.913Z,6.14
2023-02-16T09:14:00.487Z,6.21
2023-02-16T09:16:29.804Z,6.26
2023-02-16T09:18:57.444Z,6.43
2023-02-16T09:21:25.717Z,6.52
2023-02-16T09:23:55.848Z,6.67
2023-02-16T09:26:24.363Z,6.82
2023-02-16T09:28:51.799Z,7.00
2023-02-16T09:31:25.801Z,6.84
2023-02-16T09:33:58.134Z,6.92
2023-02-16T09:36:24.707Z,6.92
2023-02-16T09:38:51.485Z,6.87
2023-02-16T09:41:25.922Z,6.86
2023-02-16T09:43:57.233Z,6.86
2023-02-16T09:46:25.790Z,6.89
2023-02-16T09:48:53.136Z,7.00
2023-02-16T09:51:33.696Z,6.83
2023-02-16T09:54:14.408Z,6.82
2023-02-16T09:56:58.730Z,6.69
2023-02-16T09:59:41.845Z,6.86
2023-02-16T10:02:27.288Z,6.74
2023-02-16T10:05:17.391Z,6.76
2023-02-16T10:07:49.971Z,6.63
2023-02-16T10:10:23.420Z,6.87
2023-02-16T10:13:00.454Z,7.02
2023-02-16T10:15:30.423Z,7.06
2023-02-16T10:18:36.757Z,7.17
2023-02-16T10:21:09.409Z,7.30
2023-02-16T10:23:57.955Z,7.31
2023-02-16T10:26:38.699Z,7.33
2023-02-16T10:29:17.048Z,7.43
2023-02-16T10:32:25.028Z,7.48
2023-02-16T10:34:51.520Z,7.55
2023-02-16T10:37:50.593Z,7.56
2023-02-16T10:40:23.683Z,7.68
2023-02-16T10:43:11.355Z,7.68
2023-02-16T10:45:45.270Z,7.71
2023-02-16T10:48:13.336Z,7.73
2023-02-16T10:50:51.238Z,7.79
2023-02-16T10:53:43.346Z,7.90
2023-02-16T10:56:31.480Z,7.94
2023-02-16T10:59:01.610Z,7.96
2023-02-16T11:01:40.151Z,8.00
2023-02-16T11:04:06.831Z,8.15
2023-02-16T11:06:36.391Z,8.17
2023-02-16T11:09:04.475Z,8.20
2023-02-16T11:11:40.133Z,8.31
2023-02-16T11:14:25.267Z,8.62
2023-02-16T11:17:12.688Z,8.76
2023-02-16T11:19:41.623Z,8.90
2023-02-16T11:22:26.248Z,8.98
2023-02-16T11:24:53.400Z,9.13
2023-02-16T11:27:22.531Z,9.38
2023-02-16T11:29:50.725Z,9.44
2023-02-16T11:32:19.689Z,9.50
2023-02-16T11:34:55.168Z,9.53
2023-02-16T11:37:33.745Z,9.52
2023-02-16T11:40:05.304Z,9.57
2023-02-16T11:42:44.716Z,9.61
2023-02-16T11:45:25.201Z,9.50
2023-02-16T11:47:55.202Z,9.60
2023-02-16T11:50:29.723Z,9.64
2023-02-16T11:53:13.211Z,9.78
2023-02-16T11:55:46.749Z,9.87
2023-02-16T11:58:26.676Z,9.96
2023-02-16T12:01:06.232Z,9.88
2023-02-16T12:04:08.265Z,10.01
2023-02-16T12:07:03.593Z,10.11
2023-02-16T12:09:31.149Z,10.30
2023-02-16T12:12:06.263Z,10.29
2023-02-16T12:14:36.670Z,10.63
2023-02-16T12:17:27.988Z,10.59
2023-02-16T12:20:32.140Z,10.51
2023-02-16T12:23:13.731Z,10.45
2023-02-16T12:25:55.303Z,10.54
2023-02-16T12:28:59.694Z,10.76
2023-02-16T12:31:52.166Z,10.82
2023-02-16T12:34:30.218Z,10.83
2023-02-16T12:36:56.706Z,10.93
2023-02-16T12:39:35.230Z,10.98
2023-02-16T12:42:21.419Z,11.13
2023-02-16T12:44:56.553Z,11.07
2023-02-16T12:47:32.429Z,11.39
2023-02-16T12:50:04.263Z,11.24
2023-02-16T12:52:37.797Z,11.11
2023-02-16T12:55:27.068Z,11.11
2023-02-16T12:58:15.056Z,11.18
2023-02-16T13:00:49.728Z,11.30
2023-02-16T13:03:38.753Z,11.33
2023-02-16T13:06:14.539Z,11.33
2023-02-16T13:08:51.492Z,11.45
2023-02-16T13:11:24.756Z,11.76
2023-02-16T13:13:56.903Z,11.76
2023-02-16T13:16:42.528Z,11.84
2023-02-16T13:19:13.932Z,12.05
2023-02-16T13:22:00.833Z,12.24
2023-02-16T13:24:33.552Z,12.24
2023-02-16T13:27:09.086Z,12.40
2023-02-16T13:30:13.275Z,12.45
2023-02-16T13:32:45.626Z,12.50
2023-02-16T13:35:48.580Z,12.41
2023-02-16T13:38:33.470Z,12.40
2023-02-16T13:41:00.919Z,12.33
2023-02-16T13:43:34.844Z,12.37
2023-02-16T13:46:06.763Z,12.41
2023-02-16T13:48:47.466Z,12.63
2023-02-16T13:51:21.056Z,12.76
2023-02-16T13:54:03.548Z,12.87
2023-02-16T13:56:30.983Z,12.87
2023-02-16T13:59:00.643Z,12.59
2023-02-16T14:01:36.615Z,12.44
2023-02-16T14:04:04.600Z,12.71
2023-02-16T14:06:37.066Z,12.75
2023-02-16T14:09:12.416Z,12.85
2023-02-16T14:11:52.994Z,12.93
2023-02-16T14:14:25.351Z,13.01
2023-02-16T14:16:51.983Z,13.06
2023-02-16T14:19:25.981Z,13.04
2023-02-16T14:21:52.743Z,13.11
2023-02-16T14:24:25.700Z,13.04
2023-02-16T14:27:04.146Z,12.94
2023-02-16T14:29:56.137Z,13.09
2023-02-16T14:32:28.555Z,13.15
2023-02-16T14:35:17.129Z,13.39
2023-02-16T14:37:53.170Z,13.37
2023-02-16T14:40:23.440Z,13.50
2023-02-16T14:43:02.733Z,13.53
2023-02-16T14:45:51.006Z,13.24
2023-02-16T14:48:21.120Z,13.10
2023-02-16T14:51:08.442Z,12.93
2023-02-16T14:54:04.509Z,13.03
2023-02-16T14:57:00.499Z,13.11
2023-02-16T14:59:39.252Z,13.41
2023-02-16T15:02:24.527Z,13.44
2023-02-16T15:04:51.178Z,13.33
2023-02-16T15:07:18.780Z,13.36
2023-02-16T15:09:47.660Z,13.39
2023-02-16T15:12:21.537Z,13.67
2023-02-16T15:15:04.355Z,13.85
2023-02-16T15:17:44.942Z,13.92
2023-02-16T15:20:27.566Z,14.01
2023-02-16T15:22:59.735Z,13.81
2023-02-16T15:25:30.329Z,13.67
2023-02-16T15:28:00.798Z,13.42
2023-02-16T15:30:52.785Z,13.18
2023-02-16T15:33:23.035Z,13.10
2023-02-16T15:35:55.616Z,13.12
2023-02-16T15:38:24.931Z,13.19
2023-02-16T15:40:57.751Z,13.17
2023-02-16T15:43:43.891Z,13.20
2023-02-16T15:46:39.746Z,13.17
2023-02-16T15:49:26.614Z,13.44
2023-02-16T15:51:56.783Z,13.44
2023-02-16T15:54:31.201Z,13.54
2023-02-16T15:57:01.537Z,13.83
2023-02-16T15:59:38.654Z,13.72
2023-02-16T16:02:13.507Z,13.54
2023-02-16T16:04:42.749Z,13.37
2023-02-16T16:07:14.986Z,13.28
2023-02-16T16:09:42.552Z,13.26
2023-02-16T16:12:14.207Z,13.16
2023-02-16T16:14:50.277Z,13.48
2023-02-16T16:17:22.602Z,13.41
2023-02-16T16:19:49.445Z,13.67
2023-02-16T16:22:38.538Z,13.45
2023-02-16T16:25:30.150Z,13.43
2023-02-16T16:27:57.194Z,13.53
2023-02-16T16:30:23.832Z,13.47
2023-02-16T16:33:09.284Z,13.27
2023-02-16T16:35:40.098Z,13.29
2023-02-16T16:38:21.506Z,13.24
2023-02-16T16:41:06.938Z,13.51
2023-02-16T16:43:37.501Z,13.44
2023-02-16T16:46:33.744Z,13.58
2023-02-16T16:49:04.499Z,13.66
2023-02-16T16:51:31.682Z,13.62
2023-02-16T16:54:00.859Z,13.55
2023-02-16T16:56:35.991Z,13.56
2023-02-16T16:59:03.339Z,13.37
2023-02-16T17:01:30.561Z,13.28
2023-02-16T17:03:57.517Z,13.14
2023-02-16T17:06:25.155Z,13.12
2023-02-16T17:08:52.029Z,13.15
2023-02-16T17:11:35.408Z,13.13
2023-02-16T17:14:16.929Z,13.15
2023-02-16T17:16:46.926Z,13.01
2023-02-16T17:19:15.488Z,12.89
2023-02-16T17:21:42.868Z,12.86
2023-02-16T17:24:10.292Z,12.84
2023-02-16T17:26:37.979Z,12.78
2023-02-16T17:29:06.327Z,12.76
2023-02-16T17:31:34.003Z,12.71
2023-02-16T17:34:00.866Z,12.61
2023-02-16T17:36:28.078Z,12.53
2023-02-16T17:38:55.061Z,12.46
2023-02-16T17:41:24.283Z,12.49
2023-02-16T17:43:51.429Z,12.40
2023-02-16T17:46:19.393Z,12.41
2023-02-16T17:48:49.454Z,12.36
2023-02-16T17:51:18.380Z,12.21
2023-02-16T17:53:45.153Z,12.13
2023-02-16T17:56:14.341Z,12.08
2023-02-16T17:58:41.804Z,11.95
2023-02-16T18:01:12.897Z,11.92
2023-02-16T18:03:39.473Z,12.00
2023-02-16T18:06:06.447Z,11.97
2023-02-16T18:08:33.327Z,11.86
2023-02-16T18:11:03.019Z,11.76
2023-02-16T18:13:29.988Z,11.64
2023-02-16T18:15:58.434Z,11.55
2023-02-16T18:18:25.002Z,11.45
2023-02-16T18:20:51.798Z,11.37
2023-02-16T18:23:18.456Z,11.32
2023-02-16T18:25:45.764Z,11.33
2023-02-16T18:28:20.602Z,11.27
2023-02-16T18:30:49.251Z,11.23
2023-02-16T18:33:17.023Z,11.21
2023-02-16T18:35:43.705Z,11.14
2023-02-16T18:38:10.617Z,11.15
2023-02-16T18:40:37.332Z,11.11
2023-02-16T18:43:03.971Z,11.05
2023-02-16T18:45:30.572Z,10.97
2023-02-16T18:47:57.277Z,10.99
2023-02-16T18:50:23.948Z,10.92
2023-02-16T18:52:50.585Z,10.88
2023-02-16T18:55:17.231Z,10.87
2023-02-16T18:57:43.867Z,10.79
2023-02-16T19:00:14.789Z,10.74
2023-02-16T19:02:43.229Z,10.71
2023-02-16T19:05:10.981Z,10.75
2023-02-16T19:07:37.746Z,10.72
2023-02-16T19:10:05.616Z,10.68
2023-02-16T19:12:32.232Z,10.62
2023-02-16T19:14:58.810Z,10.60
2023-02-16T19:17:25.353Z,10.54
2023-02-16T19:19:51.852Z,10.51
2023-02-16T19:22:18.446Z,10.46
2023-02-16T19:24:45.326Z,10.44
2023-02-16T19:27:12.511Z,10.42
2023-02-16T19:29:39.503Z,10.38
2023-02-16T19:32:06.088Z,10.36
2023-02-16T19:34:33.266Z,10.37
2023-02-16T19:36:59.968Z,10.33
2023-02-16T19:39:26.539Z,10.37
2023-02-16T19:41:53.105Z,10.52
2023-02-16T19:44:19.740Z,10.56
2023-02-16T19:46:46.317Z,10.49
2023-02-16T19:49:15.291Z,10.36
2023-02-16T19:51:42.185Z,10.25
2023-02-16T19:54:09.061Z,10.15
2023-02-16T19:56:40.437Z,10.12
2023-02-16T19:59:08.191Z,9.95
2023-02-16T20:01:34.943Z,9.86
2023-02-16T20:04:02.918Z,9.84
2023-02-16T20:06:37.198Z,9.84
2023-02-16T20:09:04.250Z,9.75
2023-02-16T20:11:31.411Z,9.72
2023-02-16T20:13:58.236Z,9.77
2023-02-16T20:16:27.067Z,9.78
2023-02-16T20:18:55.243Z,9.75
2023-02-16T20:21:27.611Z,9.65
2023-02-16T20:24:00.074Z,9.70
2023-02-16T20:26:34.311Z,9.67
2023-02-16T20:29:01.546Z,9.61
2023-02-16T20:31:41.577Z,9.62
2023-02-16T20:34:09.820Z,9.59
2023-02-16T20:36:37.446Z,9.53
2023-02-16T20:39:06.721Z,9.50
2023-02-16T20:41:33.544Z,9.46
2023-02-16T20:44:02.831Z,9.42
2023-02-16T20:46:29.783Z,9.29
2023-02-16T20:48:56.714Z,9.27
2023-02-16T20:51:23.231Z,9.28
2023-02-16T20:53:49.838Z,9.31
2023-02-16T20:56:24.332Z,9.28
2023-02-16T20:58:53.168Z,9.28
2023-02-16T21:01:23.777Z,9.18
2023-02-16T21:03:51.669Z,9.16
2023-02-16T21:06:19.522Z,9.14
2023-02-16T21:08:46.711Z,9.12
2023-02-16T21:11:14.671Z,9.08
2023-02-16T21:13:41.897Z,9.03
2023-02-16T21:16:09.354Z,9.00
2023-02-16T21:18:38.756Z,9.02
2023-02-16T21:21:07.888Z,8.95
2023-02-16T21:23:34.480Z,8.99
2023-02-16T21:26:04.198Z,8.92
2023-02-16T21:28:31.315Z,8.83
2023-02-16T21:31:05.785Z,8.83
2023-02-16T21:33:32.502Z,8.80
2023-02-16T21:36:23.305Z,8.93
2023-02-16T21:38:51.118Z,8.86
2023-02-16T21:41:26.487Z,8.79
2023-02-16T21:44:07.078Z,8.72
2023-02-16T21:46:39.481Z,8.69
2023-02-16T21:49:08.615Z,8.65
2023-02-16T21:51:37.646Z,8.59
2023-02-16T21:54:09.739Z,8.52
2023-02-16T21:56:41.756Z,8.45
2023-02-16T21:59:11.978Z,8.41
2023-02-16T22:01:44.722Z,8.36
2023-02-16T22:04:13.379Z,8.35
2023-02-16T22:06:43.193Z,8.43
2023-02-16T22:09:12.813Z,8.39
2023-02-16T22:11:39.458Z,8.34
2023-02-16T22:14:06.039Z,8.30
2023-02-16T22:16:35.400Z,8.33
2023-02-16T22:19:07.258Z,8.29
2023-02-16T22:21:38.650Z,8.43
2023-02-16T22:24:05.852Z,8.43
2023-02-16T22:26:34.632Z,8.47
2023-02-16T22:29:06.751Z,8.48
2023-02-16T22:31:33.510Z,8.42
2023-02-16T22:34:02.953Z,8.34
2023-02-16T22:36:30.005Z,8.24
2023-02-16T22:38:56.716Z,8.22
2023-02-16T22:41:24.544Z,8.18
2023-02-16T22:43:55.608Z,8.18
2023-02-16T22:46:24.214Z,8.06
2023-02-16T22:48:52.382Z,8.08
2023-02-16T22:51:21.284Z,8.11
2023-02-16T22:53:48.564Z,8.02
2023-02-16T22:56:17.624Z,8.00
2023-02-16T22:58:44.563Z,8.03
2023-02-16T23:01:16.528Z,7.97
2023-02-16T23:03:45.637Z,7.93
2023-02-16T23:06:17.596Z,7.95
2023-02-16T23:08:45.963Z,7.84
2023-02-16T23:11:13.013Z,7.90
2023-02-16T23:13:39.727Z,7.79
2023-02-16T23:16:09.289Z,7.80
2023-02-16T23:18:35.932Z,7.77
2023-02-16T23:21:09.293Z,7.79
2023-02-16T23:23:36.414Z,7.72
2023-02-16T23:26:06.208Z,7.70
2023-02-16T23:28:34.412Z,7.69
2023-02-16T23:31:01.295Z,7.68
2023-02-16T23:33:27.997Z,7.61
2023-02-16T23:35:55.495Z,7.59
2023-02-16T23:38:22.706Z,7.58
2023-02-16T23:41:11.232Z,7.61
2023-02-16T23:43:38.205Z,7.63
2023-02-16T23:46:05.777Z,7.60
2023-02-16T23:48:33.458Z,7.72
2023-02-16T23:51:00.354Z,7.74
2023-02-16T23:53:28.282Z,7.71
2023-02-16T23:55:58.638Z,7.70
2023-02-16T23:58:27.522Z,7.73
